Terminal Aerodrome Forecast
Issued by NWS

Home | Current Version | Previous Version | Text Only | Print | Product List | Glossary On
Versions: 1 2 3 4 5 6 7 8 9 10 11 12 13 14
000
FTUS46 KPDT 230500
TAFALW
TAF
KALW 230525Z 2306/2406 12011KT P6SM -SHRA VCTS SCT060CB BKN100
     FM230900 12007KT P6SM BKN100
     FM231500 22007KT P6SM BKN120
     FM231800 24011G16KT P6SM SCT050 BKN100
     FM232200 24018G25KT P6SM VCTS SCT050CB BKN100=

USA.gov is the U.S. government's official web portal to all federal, state and local government web resources and services.